Time;durP1;ratioP1;P1;durP2;ratioP2;P2;SDS_P1;SDS_P2;PMS_P1;PMS_P2;Temp;Humidity;BMP_temperature;BMP_pressure;BME280_temperature;BME280_humidity;BME280_pressure;Samples;Min_cycle;Max_cycle;Signal;HPM_P1;HPM_P2
2022/11/09 00:01:30;;;;;;;23.73;11.33;;;;;;;12.33;62.07;99705.78;6185307;23;20502;-86
2022/11/09 00:04:01;;;;;;;24.90;10.90;;;;;;;12.22;61.76;99710.72;6186506;23;20601;-86
2022/11/09 00:06:27;;;;;;;32.73;12.60;;;;;;;12.18;61.90;99713.59;6187020;23;20491;-86
2022/11/09 00:08:53;;;;;;;21.00;10.43;;;;;;;12.16;61.51;99712.78;6186429;23;20259;-86
2022/11/09 00:11:19;;;;;;;30.60;10.30;;;;;;;12.09;61.28;99707.00;6186442;23;20175;-86
2022/11/09 00:13:46;;;;;;;26.83;11.00;;;;;;;12.05;61.08;99712.50;6186447;23;20205;-86
2022/11/09 00:16:14;;;;;;;31.30;11.63;;;;;;;11.97;61.28;99706.78;6186363;23;20147;-86
2022/11/09 00:18:46;;;;;;;30.47;11.80;;;;;;;11.83;61.50;99707.44;6186963;23;20453;-86
2022/11/09 00:21:13;;;;;;;26.47;9.40;;;;;;;11.87;61.30;99708.16;6186641;23;20614;-86
2022/11/09 00:23:39;;;;;;;27.07;9.60;;;;;;;11.87;61.08;99710.78;6186355;23;20160;-86
2022/11/09 00:26:06;;;;;;;17.73;9.03;;;;;;;11.83;61.05;99703.97;6186195;23;20187;-86
2022/11/09 00:28:32;;;;;;;26.43;10.00;;;;;;;11.82;60.88;99710.16;6160082;23;20150;-86
2022/11/09 00:31:03;;;;;;;21.67;9.37;;;;;;;11.78;60.77;99709.44;6185882;23;20513;-86
2022/11/09 00:33:28;;;;;;;20.50;9.07;;;;;;;11.82;60.51;99704.91;6186138;23;20575;-86
2022/11/09 00:35:54;;;;;;;22.27;9.37;;;;;;;11.93;59.65;99702.56;6186194;23;20146;-86
2022/11/09 00:38:20;;;;;;;20.50;9.67;;;;;;;11.76;60.40;99702.56;6160191;23;20163;-86
2022/11/09 00:40:45;;;;;;;21.33;9.60;;;;;;;11.68;60.60;99705.53;6160122;23;20209;-86
2022/11/09 00:43:11;;;;;;;19.33;9.47;;;;;;;11.55;61.00;99707.91;6160153;23;20154;-86
2022/11/09 00:45:37;;;;;;;20.90;8.93;;;;;;;11.46;61.66;99703.06;6186369;23;20150;-86
2022/11/09 00:48:03;;;;;;;22.13;10.07;;;;;;;11.39;62.63;99699.03;6186067;23;20193;-86
2022/11/09 00:50:28;;;;;;;21.70;10.73;;;;;;;11.37;62.63;99692.97;6159898;23;20508;-86
2022/11/09 00:52:54;;;;;;;23.60;9.03;;;;;;;11.35;62.83;99691.34;6185985;23;20166;-86
2022/11/09 00:55:23;;;;;;;22.67;10.27;;;;;;;11.33;63.42;99686.19;6186007;23;20155;-86
2022/11/09 00:57:49;;;;;;;19.87;9.70;;;;;;;11.29;63.64;99687.28;6185912;23;20154;-86
2022/11/09 01:00:19;;;;;;;20.87;9.97;;;;;;;11.27;63.72;99675.16;6186026;23;20146;-86
2022/11/09 01:02:46;;;;;;;25.40;10.70;;;;;;;11.24;64.08;99676.09;6184497;23;20154;-86
2022/11/09 01:05:11;;;;;;;36.90;11.27;;;;;;;11.24;64.33;99670.03;6160211;23;20574;-86
2022/11/09 01:07:37;;;;;;;25.53;11.30;;;;;;;11.24;64.49;99670.84;6160039;23;20169;-86
2022/11/09 01:10:04;;;;;;;25.33;10.90;;;;;;;11.26;64.75;99674.28;6186278;23;20154;-86
2022/11/09 01:12:30;;;;;;;23.00;10.93;;;;;;;11.32;64.52;99673.97;6185794;23;20150;-86
2022/11/09 01:14:55;;;;;;;28.07;12.00;;;;;;;11.32;64.37;99676.59;6186433;23;20146;-86
2022/11/09 01:17:21;;;;;;;30.43;10.10;;;;;;;11.26;64.36;99671.66;6185623;23;20184;-86
2022/11/09 01:19:47;;;;;;;23.67;9.37;;;;;;;11.21;64.31;99672.78;6185751;23;20173;-86
2022/11/09 01:22:12;;;;;;;25.43;10.10;;;;;;;11.18;64.11;99668.53;6185986;23;20170;-86
2022/11/09 01:24:38;;;;;;;20.60;11.00;;;;;;;11.29;63.65;99671.53;6159747;23;20673;-86
2022/11/09 01:27:03;;;;;;;28.37;11.53;;;;;;;11.33;63.74;99674.84;6186006;23;20151;-86
2022/11/09 01:29:28;;;;;;;23.73;11.03;;;;;;;11.28;63.72;99676.81;6185488;23;20232;-86
2022/11/09 01:31:54;;;;;;;24.50;11.60;;;;;;;11.23;63.51;99668.31;6185534;23;20255;-86
2022/11/09 01:34:20;;;;;;;28.13;10.80;;;;;;;11.17;63.43;99669.44;6185644;23;20268;-86
2022/11/09 01:36:50;;;;;;;27.03;10.63;;;;;;;11.10;64.00;99673.28;6185878;23;20480;-86
2022/11/09 01:39:15;;;;;;;25.10;11.93;;;;;;;11.04;64.61;99668.31;6159484;23;20624;-86
2022/11/09 01:41:41;;;;;;;26.80;13.33;;;;;;;11.17;64.01;99669.44;6185412;23;20146;-86
2022/11/09 01:44:17;;;;;;;22.60;10.83;;;;;;;11.18;64.18;99665.91;6184978;23;20562;-85
2022/11/09 01:46:54;;;;;;;30.07;12.77;;;;;;;11.13;64.16;99672.28;6186125;23;20161;-85
2022/11/09 01:49:30;;;;;;;25.73;11.40;;;;;;;11.07;64.29;99669.03;6185466;23;20147;-86
2022/11/09 01:52:01;;;;;;;27.77;12.03;;;;;;;11.01;64.16;99665.81;6185716;23;20166;-86
2022/11/09 01:54:32;;;;;;;24.17;11.80;;;;;;;11.00;64.31;99670.25;6159519;23;20654;-86
2022/11/09 01:57:02;;;;;;;20.50;11.83;;;;;;;11.11;64.20;99674.97;6185778;23;20158;-86
2022/11/09 01:59:34;;;;;;;28.67;12.47;;;;;;;11.18;64.06;99679.03;6159543;23;20150;-86
2022/11/09 02:02:01;;;;;;;28.30;13.07;;;;;;;11.31;64.07;99671.44;6185505;23;20517;-86
2022/11/09 02:04:39;;;;;;;23.77;12.97;;;;;;;11.28;64.45;99674.19;6159399;23;20193;-86
2022/11/09 02:07:04;;;;;;;30.50;12.67;;;;;;;11.33;64.89;99674.84;6185718;23;20134;-85
2022/11/09 02:09:49;;;;;;;32.57;14.10;;;;;;;11.33;65.48;99672.22;6185350;23;20151;-86
2022/11/09 02:12:16;;;;;;;32.80;14.80;;;;;;;11.40;65.69;99669.22;6185576;23;20256;-86
2022/11/09 02:14:43;;;;;;;28.53;14.83;;;;;;;11.40;66.38;99677.09;6185301;23;20157;-86
2022/11/09 02:17:09;;;;;;;32.83;14.53;;;;;;;11.16;67.72;99677.41;6184106;23;20316;-86
2022/11/09 02:19:35;;;;;;;32.60;14.13;;;;;;;11.10;68.17;99673.28;6185617;23;20454;-86
2022/11/09 02:22:01;;;;;;;38.93;15.10;;;;;;;11.13;68.37;99681.03;6185607;23;20213;-86
2022/11/09 02:24:26;;;;;;;42.57;17.80;;;;;;;11.19;68.31;99672.84;6185177;23;20147;-86
2022/11/09 02:26:53;;;;;;;35.30;15.93;;;;;;;11.19;68.56;99678.09;6159311;23;20216;-86
2022/11/09 02:29:26;;;;;;;34.90;17.67;;;;;;;11.24;68.89;99686.59;6185627;23;20146;-85
2022/11/09 02:32:00;;;;;;;36.63;15.93;;;;;;;11.24;68.83;99689.22;6185404;23;20264;-86
2022/11/09 02:34:26;;;;;;;37.53;17.33;;;;;;;11.24;68.95;99686.59;6185283;23;20186;-85
2022/11/09 02:36:51;;;;;;;40.77;18.30;;;;;;;11.21;69.62;99681.53;6185131;23;20198;-85
2022/11/09 02:39:19;;;;;;;38.17;16.97;;;;;;;11.26;69.88;99690.03;6185293;23;20161;-86
2022/11/09 02:41:49;;;;;;;43.73;18.57;;;;;;;11.31;69.67;99682.78;6185435;23;20218;-86
2022/11/09 02:44:17;;;;;;;45.03;19.37;;;;;;;11.34;69.49;99687.03;6185808;23;20567;-86
2022/11/09 02:46:43;;;;;;;49.33;20.27;;;;;;;11.37;69.27;99692.97;6185509;23;20147;-86
2022/11/09 02:49:08;;;;;;;35.83;19.77;;;;;;;11.29;68.74;99687.28;6185721;23;20146;-86
2022/11/09 02:51:34;;;;;;;41.50;19.53;;;;;;;11.30;68.13;99685.47;6185173;23;20186;-86
2022/11/09 02:53:59;;;;;;;49.27;18.77;;;;;;;11.38;67.88;99689.44;6185111;23;20212;-86
2022/11/09 02:56:25;;;;;;;42.53;18.37;;;;;;;11.42;67.55;99690.16;6186584;23;20157;-86
2022/11/09 02:58:50;;;;;;;52.40;19.33;;;;;;;11.46;67.49;99695.19;6185864;23;20154;-86
2022/11/09 03:01:16;;;;;;;46.40;19.63;;;;;;;11.51;67.79;99700.22;6187713;23;20147;-86
2022/11/09 03:03:41;;;;;;;54.97;17.93;;;;;;;11.48;67.69;99697.72;6187043;23;20567;-86
2022/11/09 03:06:07;;;;;;;43.33;17.67;;;;;;;11.43;67.93;99703.19;6187161;23;20146;-86
2022/11/09 03:08:32;;;;;;;43.90;18.47;;;;;;;11.43;67.61;99699.72;6186848;23;20223;-86
2022/11/09 03:10:58;;;;;;;44.57;18.07;;;;;;;11.45;67.92;99696.09;6160743;23;20182;-86
2022/11/09 03:13:24;;;;;;;42.40;19.40;;;;;;;11.41;67.85;99697.19;6187004;23;20151;-86
2022/11/09 03:15:49;;;;;;;37.20;17.53;;;;;;;11.31;68.30;99692.44;6187203;23;20146;-86
2022/11/09 03:18:14;;;;;;;33.27;13.07;;;;;;;11.33;67.97;99698.44;6160897;23;20154;-86
2022/11/09 03:20:40;;;;;;;30.03;12.60;;;;;;;11.31;67.74;99693.28;6160760;23;20154;-86
2022/11/09 03:23:05;;;;;;;29.47;12.47;;;;;;;11.37;67.09;99692.97;6187231;23;20458;-86
2022/11/09 03:25:31;;;;;;;32.33;14.57;;;;;;;11.32;67.05;99694.97;6160841;23;20150;-86
2022/11/09 03:28:01;;;;;;;30.67;15.13;;;;;;;11.30;66.66;99693.34;6186724;23;20154;-86
2022/11/09 03:30:27;;;;;;;30.83;14.63;;;;;;;11.27;66.44;99702.22;6186432;23;20265;-86
2022/11/09 03:32:59;;;;;;;33.63;15.90;;;;;;;11.32;66.02;99697.59;6186635;23;20578;-86
2022/11/09 03:35:24;;;;;;;34.73;14.30;;;;;;;11.35;65.53;99692.22;6187046;23;20146;-86
2022/11/09 03:37:50;;;;;;;30.63;15.20;;;;;;;11.27;65.10;99702.22;6187059;23;20220;-86
2022/11/09 03:40:15;;;;;;;34.40;13.60;;;;;;;11.17;64.58;99703.56;6186707;23;20154;-86
2022/11/09 03:42:46;;;;;;;30.10;14.13;;;;;;;11.18;64.39;99700.03;6160557;23;20574;-86
2022/11/09 03:45:13;;;;;;;36.27;15.50;;;;;;;11.20;63.87;99707.81;6160572;23;20151;-86
2022/11/09 03:47:48;;;;;;;30.87;12.53;;;;;;;11.19;63.85;99706.13;6160564;23;20159;-86
2022/11/09 03:50:15;;;;;;;27.47;14.17;;;;;;;11.15;63.66;99713.28;6186491;23;20157;-86
2022/11/09 03:52:45;;;;;;;27.73;13.13;;;;;;;11.02;63.78;99717.38;6186608;23;20157;-86
2022/11/09 03:55:10;;;;;;;27.87;14.53;;;;;;;10.95;63.96;99718.59;6160476;23;20242;-85
2022/11/09 03:57:36;;;;;;;52.10;21.30;;;;;;;10.86;63.90;99705.88;6161232;23;20463;-86
2022/11/09 04:00:01;;;;;;;72.07;25.93;;;;;;;10.71;64.11;99717.03;6186821;23;20151;-85
2022/11/09 04:02:27;;;;;;;55.77;19.50;;;;;;;10.62;64.68;99715.66;6160899;23;20162;-85
2022/11/09 04:04:52;;;;;;;84.80;26.53;;;;;;;10.67;64.73;99715.47;6186490;23;20147;-85
2022/11/09 04:07:18;;;;;;;85.17;26.03;;;;;;;10.78;64.69;99718.47;6186245;23;20263;-85
2022/11/09 04:09:43;;;;;;;60.07;19.93;;;;;;;10.82;64.71;99714.81;6160497;23;20177;-86
2022/11/09 04:12:08;;;;;;;52.93;18.17;;;;;;;10.79;65.77;99721.03;6186583;23;20178;-85
2022/11/09 04:14:34;;;;;;;58.10;18.20;;;;;;;10.78;65.50;99721.94;6160218;23;20158;-86
2022/11/09 04:16:59;;;;;;;38.97;15.30;;;;;;;10.79;65.83;99720.19;6186397;23;20233;-86
2022/11/09 04:19:24;;;;;;;34.80;16.80;;;;;;;10.78;66.08;99718.47;6160369;23;20213;-86
2022/11/09 04:21:50;;;;;;;50.67;18.07;;;;;;;10.78;66.28;99718.47;6186233;23;20182;-86
2022/11/09 04:24:16;;;;;;;45.97;16.77;;;;;;;10.78;66.45;99714.06;6186295;23;20147;-86
2022/11/09 04:26:41;;;;;;;38.53;16.23;;;;;;;10.81;66.36;99718.34;6186101;23;20222;-86
2022/11/09 04:29:06;;;;;;;29.83;14.43;;;;;;;10.79;66.34;99715.78;6185037;23;20208;-85
2022/11/09 04:31:32;;;;;;;31.53;14.93;;;;;;;10.80;66.43;99719.25;6158586;23;20186;-86
2022/11/09 04:33:57;;;;;;;31.30;14.70;;;;;;;10.84;66.52;99712.97;6184629;23;20566;-86
2022/11/09 04:36:23;;;;;;;40.70;17.37;;;;;;;10.90;66.20;99715.31;6158622;23;20164;-86
2022/11/09 04:38:48;;;;;;;58.73;21.97;;;;;;;10.94;65.85;99720.34;6184548;23;20221;-86
2022/11/09 04:41:14;;;;;;;47.37;17.67;;;;;;;10.92;65.81;99714.34;6183371;23;20193;-86
2022/11/09 04:43:40;;;;;;;41.90;16.23;;;;;;;10.91;65.75;99717.84;6158588;23;20229;-86
2022/11/09 04:46:05;;;;;;;38.87;18.07;;;;;;;10.92;65.82;99716.09;6158672;23;20594;-86
2022/11/09 04:48:31;;;;;;;34.87;16.27;;;;;;;10.90;65.87;99718.75;6158647;23;20562;-86
2022/11/09 04:51:02;;;;;;;36.33;16.33;;;;;;;10.93;65.94;99723.03;6184469;23;20482;-86
2022/11/09 04:53:27;;;;;;;45.87;17.03;;;;;;;11.02;65.70;99720.00;6184521;23;20501;-86
2022/11/09 04:55:53;;;;;;;30.83;16.40;;;;;;;11.04;65.54;99718.16;6158404;23;20580;-86
2022/11/09 04:58:19;;;;;;;40.20;16.47;;;;;;;11.04;65.72;99715.53;6184215;23;20165;-86
2022/11/09 05:00:46;;;;;;;29.60;15.10;;;;;;;11.02;65.94;99718.25;6184350;23;20143;-86
2022/11/09 05:03:13;;;;;;;37.30;16.33;;;;;;;11.11;66.10;99727.44;6158510;23;20155;-86
2022/11/09 05:05:41;;;;;;;40.23;17.27;;;;;;;11.16;65.88;99729.88;6184553;23;20161;-86
2022/11/09 05:08:08;;;;;;;40.83;15.80;;;;;;;11.21;66.16;99726.13;6183936;23;20462;-86
2022/11/09 05:10:35;;;;;;;37.77;17.17;;;;;;;11.21;66.59;99728.75;6183960;23;20651;-86
2022/11/09 05:13:04;;;;;;;29.07;14.53;;;;;;;11.23;66.68;99726.91;6185457;23;20154;-86
2022/11/09 05:15:32;;;;;;;30.87;16.07;;;;;;;11.24;66.96;99723.34;6158402;23;20162;-86
2022/11/09 05:18:00;;;;;;;42.27;17.70;;;;;;;11.27;67.00;99732.88;6157760;23;20151;-86
2022/11/09 05:20:27;;;;;;;34.83;14.77;;;;;;;11.30;66.83;99735.34;6158344;23;20197;-86
2022/11/09 05:25:42;;;;;;;32.60;15.53;;;;;;;11.28;66.56;99745.91;6184622;23;20221;-86
2022/11/09 05:28:09;;;;;;;38.57;15.57;;;;;;;11.28;66.43;99748.53;6183779;23;20240;-86
2022/11/09 05:30:35;;;;;;;35.45;15.48;;;;;;;11.25;65.83;99753.06;6136403;23;1129152;-86
2022/11/09 05:33:02;;;;;;;32.53;16.40;;;;;;;11.24;65.71;99752.19;6185208;23;20188;-86
2022/11/09 05:35:27;;;;;;;31.97;15.63;;;;;;;11.27;65.73;99754.69;6159587;23;20586;-86
2022/11/09 05:37:53;;;;;;;30.10;16.30;;;;;;;11.29;65.28;99755.50;6184412;23;20161;-86
2022/11/09 05:40:19;;;;;;;36.50;16.53;;;;;;;11.31;65.53;99751.03;6185563;23;20217;-86
2022/11/09 05:42:45;;;;;;;40.93;17.17;;;;;;;11.31;64.94;99760.66;6185560;23;20146;-86
2022/11/09 05:45:17;;;;;;;28.50;15.03;;;;;;;11.31;64.42;99761.53;6185533;23;20304;-86
2022/11/09 05:47:44;;;;;;;31.13;14.43;;;;;;;11.36;64.21;99759.53;6185734;23;20145;-86
2022/11/09 05:50:12;;;;;;;31.90;14.57;;;;;;;11.48;63.73;99769.47;6185477;23;20146;-86
2022/11/09 05:52:37;;;;;;;39.33;15.73;;;;;;;11.55;63.59;99770.91;6185468;23;20151;-86
2022/11/09 05:55:03;;;;;;;37.57;16.17;;;;;;;11.58;63.55;99773.34;6185492;23;20151;-86
2022/11/09 05:57:29;;;;;;;32.23;15.57;;;;;;;11.61;63.29;99775.84;6185444;23;20150;-86
2022/11/09 05:59:55;;;;;;;34.70;13.60;;;;;;;11.65;63.06;99776.56;6185728;23;20157;-86
2022/11/09 06:02:21;;;;;;;30.17;13.63;;;;;;;11.76;63.02;99781.34;6186026;23;20229;-86
2022/11/09 06:04:46;;;;;;;27.83;12.70;;;;;;;11.86;63.36;99786.09;6185277;23;20146;-86
2022/11/09 06:07:11;;;;;;;23.43;12.50;;;;;;;11.92;63.24;99784.97;6185679;23;20468;-86
2022/11/09 06:09:37;;;;;;;25.47;12.30;;;;;;;11.96;63.60;99787.34;6185387;23;20476;-86
2022/11/09 06:12:03;;;;;;;23.93;11.87;;;;;;;12.08;63.90;99789.38;6184113;23;20193;-86
2022/11/09 06:14:28;;;;;;;27.27;11.90;;;;;;;12.15;63.98;99792.59;6185651;23;20236;-86
2022/11/09 06:16:53;;;;;;;21.93;11.07;;;;;;;12.17;63.99;99795.97;6159327;23;20575;-86
2022/11/09 06:19:19;;;;;;;21.83;10.07;;;;;;;12.19;64.31;99788.88;6185985;23;20150;-86
2022/11/09 06:21:44;;;;;;;24.60;11.80;;;;;;;12.26;64.52;99796.38;6184094;23;20162;-86
2022/11/09 06:24:10;;;;;;;22.80;11.43;;;;;;;12.34;64.34;99799.47;6182843;23;20200;-86
2022/11/09 06:26:36;;;;;;;24.03;11.47;;;;;;;12.37;64.45;99797.66;6158849;23;20150;-86
2022/11/09 06:29:01;;;;;;;20.53;9.97;;;;;;;12.41;64.20;99805.31;6158905;23;20174;-86
2022/11/09 06:31:27;;;;;;;23.87;11.37;;;;;;;12.53;64.60;99802.06;6158854;23;20526;-86
2022/11/09 06:33:53;;;;;;;22.23;10.67;;;;;;;12.69;64.42;99815.28;6158689;23;20159;-86
2022/11/09 06:36:19;;;;;;;23.03;11.80;;;;;;;12.84;64.01;99814.53;6184868;23;20150;-86
2022/11/09 06:38:48;;;;;;;23.47;10.47;;;;;;;12.91;64.02;99808.88;6184832;23;20151;-86
2022/11/09 06:41:13;;;;;;;26.67;11.80;;;;;;;12.98;64.51;99806.75;6159049;23;20152;-86
2022/11/09 06:43:39;;;;;;;24.17;10.27;;;;;;;13.05;64.89;99796.78;6159033;23;20550;-86
2022/11/09 06:46:04;;;;;;;23.13;9.93;;;;;;;13.13;64.31;99799.91;6184725;23;20527;-86
2022/11/09 06:48:30;;;;;;;21.73;10.57;;;;;;;13.16;64.54;99799.72;6159530;23;20156;-86
2022/11/09 06:50:59;;;;;;;24.50;11.50;;;;;;;13.28;64.34;99810.47;6158849;23;20578;-86
2022/11/09 06:53:26;;;;;;;23.23;10.57;;;;;;;13.45;64.22;99799.88;6184935;23;20148;-86
2022/11/09 06:55:52;;;;;;;23.60;11.00;;;;;;;13.50;64.64;99800.50;6184341;23;20154;-86
2022/11/09 06:58:18;;;;;;;24.10;10.83;;;;;;;13.58;64.33;99800.06;6184489;23;20152;-86
2022/11/09 07:01:22;;;;;;;23.30;10.67;;;;;;;13.72;64.06;99799.31;6158783;23;20484;-86
2022/11/09 07:03:48;;;;;;;25.17;9.33;;;;;;;13.82;63.81;99793.47;6184882;23;20522;-86
2022/11/09 07:06:13;;;;;;;23.30;9.93;;;;;;;13.88;63.88;99797.56;6185164;23;20149;-86
2022/11/09 07:08:39;;;;;;;22.63;11.63;;;;;;;14.02;64.14;99795.84;6184578;23;20166;-86
2022/11/09 07:11:07;;;;;;;25.83;12.30;;;;;;;14.18;64.36;99794.03;6185370;23;20241;-86
2022/11/09 07:13:33;;;;;;;32.93;12.57;;;;;;;14.38;64.15;99778.91;6159045;23;20161;-86
2022/11/09 07:15:59;;;;;;;27.07;13.43;;;;;;;14.51;63.59;99782.53;6185401;23;20154;-86
2022/11/09 07:18:24;;;;;;;33.60;14.23;;;;;;;14.59;63.15;99789.06;6184996;23;20477;-86
2022/11/09 07:20:50;;;;;;;25.77;13.00;;;;;;;14.64;62.13;99792.28;6185314;23;20146;-86
2022/11/09 07:23:15;;;;;;;31.63;13.80;;;;;;;14.65;62.24;99786.03;6185361;23;20147;-87
2022/11/09 07:25:40;;;;;;;26.17;12.07;;;;;;;14.68;62.58;99785.00;6184951;23;20162;-86
2022/11/09 07:28:08;;;;;;;29.73;13.93;;;;;;;14.84;62.29;99787.59;6158945;23;20155;-86
2022/11/09 07:30:35;;;;;;;34.10;14.20;;;;;;;15.00;61.95;99783.94;6184720;23;20205;-87
2022/11/09 07:33:01;;;;;;;34.37;14.43;;;;;;;15.05;61.12;99792.44;6184872;23;20171;-86
2022/11/09 07:35:27;;;;;;;36.63;14.17;;;;;;;15.12;61.32;99787.66;6160308;23;20151;-86
2022/11/09 07:37:52;;;;;;;30.97;14.30;;;;;;;15.21;61.46;99782.66;6184893;23;20534;-86
2022/11/09 07:40:18;;;;;;;26.73;14.63;;;;;;;15.37;61.63;99783.41;6184919;23;20154;-86
2022/11/09 07:42:43;;;;;;;34.10;14.40;;;;;;;15.53;60.29;99777.19;6160163;23;20495;-86
2022/11/09 07:45:09;;;;;;;34.00;13.30;;;;;;;15.63;60.19;99783.59;6186728;23;20152;-86
2022/11/09 07:47:34;;;;;;;36.60;13.40;;;;;;;15.71;59.62;99782.19;6160565;23;20216;-86
2022/11/09 07:50:00;;;;;;;29.30;14.53;;;;;;;15.84;59.74;99783.09;6160950;23;20516;-87
2022/11/09 07:52:25;;;;;;;32.73;13.07;;;;;;;15.95;60.17;99787.72;6160909;23;20213;-86
2022/11/09 07:54:51;;;;;;;29.57;14.93;;;;;;;15.97;60.21;99780.50;6186394;23;20245;-86
2022/11/09 07:57:16;;;;;;;27.37;12.63;;;;;;;16.09;60.44;99782.34;6186642;23;20153;-86
2022/11/09 07:59:42;;;;;;;32.77;13.20;;;;;;;16.29;59.31;99775.78;6185378;23;20178;-86
2022/11/09 08:02:08;;;;;;;29.93;14.27;;;;;;;16.42;59.44;99784.59;6185306;23;20536;-86
2022/11/09 08:04:33;;;;;;;30.57;13.83;;;;;;;16.57;58.56;99780.97;6161432;23;20164;-86
2022/11/09 08:06:59;;;;;;;28.03;13.63;;;;;;;16.78;58.11;99781.31;6186508;23;20153;-86
2022/11/09 08:09:24;;;;;;;27.70;14.10;;;;;;;16.87;56.97;99773.63;6186755;23;20574;-87
2022/11/09 08:11:50;;;;;;;29.37;13.63;;;;;;;17.03;57.31;99776.06;6186371;23;20605;-87
2022/11/09 08:14:16;;;;;;;27.40;13.40;;;;;;;17.12;56.65;99778.06;6186601;23;20154;-87
2022/11/09 08:16:41;;;;;;;27.03;13.57;;;;;;;17.14;55.77;99773.50;6186691;23;20192;-87
2022/11/09 08:19:09;;;;;;;36.23;14.73;;;;;;;17.33;55.29;99770.41;6160344;23;20157;-87
2022/11/09 08:21:37;;;;;;;26.67;13.77;;;;;;;17.54;55.10;99775.09;6160981;23;20573;-87
2022/11/09 08:24:04;;;;;;;31.67;15.57;;;;;;;17.74;53.91;99771.03;6160119;23;20158;-88
2022/11/09 08:26:30;;;;;;;30.67;14.20;;;;;;;17.76;52.81;99769.13;6155776;23;20182;-87
2022/11/09 08:28:55;;;;;;;26.23;14.17;;;;;;;17.88;53.26;99776.19;6186353;23;20188;-87
2022/11/09 08:31:21;;;;;;;26.23;15.20;;;;;;;18.07;52.68;99781.84;6185957;23;20202;-88
2022/11/09 08:33:46;;;;;;;27.53;13.07;;;;;;;18.10;52.09;99778.97;6186043;23;20157;-87
2022/11/09 08:36:14;;;;;;;35.57;15.33;;;;;;;18.22;51.92;99782.53;6186105;23;20192;-88
2022/11/09 08:38:42;;;;;;;29.13;14.00;;;;;;;18.40;51.82;99778.50;6160432;23;20155;-88
2022/11/09 08:41:08;;;;;;;26.43;13.37;;;;;;;18.51;51.15;99780.41;6185980;23;20143;-88
2022/11/09 08:43:34;;;;;;;28.00;13.23;;;;;;;18.59;50.78;99770.03;6160179;23;20217;-87
2022/11/09 08:45:59;;;;;;;31.27;13.80;;;;;;;18.83;50.85;99771.69;6160980;23;20155;-88
2022/11/09 08:48:25;;;;;;;24.40;12.73;;;;;;;18.97;50.76;99776.78;6160280;23;20224;-87
2022/11/09 08:50:52;;;;;;;28.33;13.87;;;;;;;18.94;49.46;99779.72;6159851;23;20253;-87
2022/11/09 08:53:18;;;;;;;29.53;12.77;;;;;;;19.07;49.87;99781.41;6160184;23;20296;-88
2022/11/09 08:55:43;;;;;;;26.53;13.13;;;;;;;19.22;49.78;99773.09;6159869;23;20648;-88
2022/11/09 08:58:09;;;;;;;31.43;14.57;;;;;;;19.39;49.08;99772.63;6185756;23;20601;-88
2022/11/09 09:00:38;;;;;;;29.07;14.00;;;;;;;19.62;48.40;99770.84;6185547;23;20149;-88
2022/11/09 09:03:05;;;;;;;25.37;12.50;;;;;;;19.58;47.71;99772.03;6159947;23;20169;-88
2022/11/09 09:05:31;;;;;;;34.70;12.63;;;;;;;19.67;48.56;99779.31;6160081;23;20532;-88
2022/11/09 09:07:58;;;;;;;25.10;12.37;;;;;;;19.92;48.58;99773.69;6159605;23;20237;-88
2022/11/09 09:10:24;;;;;;;28.20;14.07;;;;;;;20.05;47.87;99774.38;6159770;23;20220;-88
2022/11/09 09:12:50;;;;;;;25.77;12.63;;;;;;;20.29;47.61;99773.38;6184759;23;20165;-88
2022/11/09 09:15:16;;;;;;;21.53;9.97;;;;;;;20.42;46.78;99760.75;6160133;23;20154;-89
2022/11/09 09:17:41;;;;;;;26.97;13.13;;;;;;;20.54;46.59;99757.94;6159705;23;20590;-89
2022/11/09 09:20:07;;;;;;;28.37;12.20;;;;;;;20.56;46.37;99749.78;6159922;23;20150;-89
2022/11/09 09:22:32;;;;;;;26.90;11.77;;;;;;;20.67;46.09;99747.94;6185222;23;20142;-88
2022/11/09 09:24:58;;;;;;;24.70;11.43;;;;;;;20.83;45.28;99748.28;6185547;23;20511;-88
2022/11/09 09:27:23;;;;;;;23.47;10.50;;;;;;;20.87;45.24;99748.03;6159736;23;20164;-88
2022/11/09 09:29:49;;;;;;;18.03;9.20;;;;;;;20.98;45.13;99738.16;6185167;23;20205;-89
2022/11/09 09:32:14;;;;;;;21.23;7.97;;;;;;;20.94;44.61;99739.38;6185331;23;20232;-88
2022/11/09 09:34:40;;;;;;;16.97;8.90;;;;;;;21.07;43.90;99733.91;6185356;23;20529;-88
2022/11/09 09:37:05;;;;;;;24.40;8.30;;;;;;;21.32;43.78;99731.63;6185332;23;20154;-89
2022/11/09 09:39:30;;;;;;;17.37;8.33;;;;;;;21.50;42.92;99731.84;6185399;23;20232;-88
2022/11/09 09:42:10;;;;;;;18.73;7.10;;;;;;;21.56;42.83;99733.13;6185211;23;20217;-89
2022/11/09 09:45:03;;;;;;;18.30;9.50;;;;;;;21.55;43.47;99726.09;6185219;23;20188;-88
2022/11/09 09:47:31;;;;;;;16.93;9.33;;;;;;;21.63;42.29;99728.91;6185283;23;20143;-89
2022/11/09 09:50:01;;;;;;;18.27;8.87;;;;;;;21.73;42.53;99729.78;6185265;23;20158;-88
2022/11/09 09:53:21;;;;;;;11.90;6.50;;;;;;;21.97;42.79;99723.13;6185166;23;20198;-89
2022/11/09 09:55:53;;;;;;;17.90;7.80;;;;;;;22.20;41.90;99718.38;6094693;23;20221;-89
2022/11/09 09:58:26;;;;;;;20.27;8.17;;;;;;;22.25;42.20;99717.97;6145094;23;20165;-89
2022/11/09 10:00:56;;;;;;;13.77;7.80;;;;;;;22.34;41.97;99715.28;6185714;23;20146;-89
2022/11/09 10:03:21;;;;;;;15.20;6.67;;;;;;;22.51;41.46;99716.44;6158917;23;20164;-89
2022/11/09 10:06:01;;;;;;;14.03;6.37;;;;;;;22.72;40.74;99700.25;6184823;23;20161;-89
2022/11/09 10:08:46;;;;;;;15.37;6.47;;;;;;;22.63;39.53;99705.47;6184910;23;20134;-89
2022/11/09 10:11:14;;;;;;;15.27;5.97;;;;;;;22.68;40.27;99709.53;6185026;23;20540;-89
2022/11/09 10:14:07;;;;;;;14.23;5.77;;;;;;;22.81;40.67;99702.03;6185045;23;20153;-89
2022/11/09 10:17:14;;;;;;;10.80;5.30;;;;;;;22.86;40.09;99705.97;6184991;23;20203;-89
2022/11/09 10:19:55;;;;;;;12.63;5.97;;;;;;;22.81;39.51;99704.72;6185037;23;20163;-90
2022/11/09 10:22:40;;;;;;;15.00;6.13;;;;;;;22.71;39.20;99707.41;6185241;23;20213;-89
2022/11/09 10:25:13;;;;;;;10.37;5.70;;;;;;;22.54;40.52;99694.75;6185191;23;20138;-89
2022/11/09 10:27:48;;;;;;;10.70;5.23;;;;;;;22.86;40.12;99699.78;6185058;23;20134;-89
2022/11/09 10:30:18;;;;;;;19.40;7.10;;;;;;;22.70;39.82;99696.84;6184916;23;20173;-89
2022/11/09 10:32:50;;;;;;;12.23;5.07;;;;;;;22.57;39.75;99695.31;6184819;23;20216;-89
2022/11/09 10:35:28;;;;;;;11.37;5.03;;;;;;;22.81;40.08;99680.66;6184807;23;20138;-89
2022/11/09 10:37:54;;;;;;;9.90;4.87;;;;;;;22.83;39.97;99684.03;6184834;23;20177;-89
2022/11/09 10:40:44;;;;;;;12.63;5.60;;;;;;;23.06;39.41;99680.84;6184397;23;20146;-89
2022/11/09 10:43:13;;;;;;;9.60;5.07;;;;;;;23.05;38.77;99676.50;6158754;23;20527;-89
2022/11/09 10:45:44;;;;;;;9.10;4.97;;;;;;;23.31;38.75;99674.00;6184878;23;20147;-89
2022/11/09 10:48:11;;;;;;;9.97;5.47;;;;;;;23.07;38.88;99671.00;6184013;23;20165;-89
2022/11/09 10:50:47;;;;;;;14.20;5.20;;;;;;;22.57;39.82;99679.28;6185158;23;20189;-89
2022/11/09 10:53:26;;;;;;;10.20;4.83;;;;;;;23.06;39.21;99669.34;6185413;23;20276;-89
2022/11/09 10:55:54;;;;;;;8.30;4.60;;;;;;;23.21;38.25;99667.88;6185930;23;20557;-89
2022/11/09 10:58:34;;;;;;;10.40;4.60;;;;;;;23.16;39.28;99659.44;6159584;23;20154;-89
2022/11/09 11:00:59;;;;;;;10.33;4.70;;;;;;;23.19;39.21;99657.28;6185227;23;20134;-89
2022/11/09 11:03:25;;;;;;;9.43;4.57;;;;;;;23.24;38.51;99656.88;6159128;23;20163;-89
2022/11/09 11:06:13;;;;;;;10.57;5.00;;;;;;;23.18;38.64;99650.28;6185508;23;20175;-89
2022/11/09 11:08:41;;;;;;;8.60;4.90;;;;;;;23.17;38.70;99655.75;6185733;23;20134;-89
2022/11/09 11:11:22;;;;;;;9.97;4.63;;;;;;;23.32;38.59;99654.31;6184961;23;20186;-89
2022/11/09 11:13:49;;;;;;;8.50;4.57;;;;;;;23.47;38.25;99650.16;6185693;23;20143;-89
2022/11/09 11:16:25;;;;;;;9.80;5.13;;;;;;;23.67;37.38;99637.47;6185168;23;20146;-90
2022/11/09 11:18:50;;;;;;;9.27;4.63;;;;;;;23.65;37.67;99639.47;6187190;23;20134;-91
2022/11/09 11:21:18;;;;;;;12.13;5.50;;;;;;;23.63;37.96;99638.78;6186961;23;20157;-89
2022/11/09 11:23:44;;;;;;;13.43;5.47;;;;;;;23.90;37.74;99643.25;6186911;23;20146;-88
2022/11/09 11:26:39;;;;;;;11.70;4.87;;;;;;;24.13;36.97;99636.47;6186932;23;20217;-89